sensor_id;sensor_type;location;lat;lon;timestamp;P1;durP1;ratioP1;P2;durP2;ratioP2
69835;SDS011;57132;51.972;4.450;2023-04-30T00:01:18;35.13;;;17.08;;
69835;SDS011;57132;51.972;4.450;2023-04-30T00:03:44;32.08;;;17.35;;
69835;SDS011;57132;51.972;4.450;2023-04-30T00:06:09;34.20;;;17.50;;
69835;SDS011;57132;51.972;4.450;2023-04-30T00:08:35;38.28;;;18.60;;
69835;SDS011;57132;51.972;4.450;2023-04-30T00:11:00;39.13;;;17.70;;
69835;SDS011;57132;51.972;4.450;2023-04-30T00:13:25;40.10;;;18.98;;
69835;SDS011;57132;51.972;4.450;2023-04-30T00:15:50;34.88;;;17.75;;
69835;SDS011;57132;51.972;4.450;2023-04-30T00:18:16;38.45;;;19.13;;
69835;SDS011;57132;51.972;4.450;2023-04-30T00:20:41;35.33;;;16.98;;
69835;SDS011;57132;51.972;4.450;2023-04-30T00:23:06;31.23;;;17.00;;
69835;SDS011;57132;51.972;4.450;2023-04-30T00:25:32;38.35;;;17.10;;
69835;SDS011;57132;51.972;4.450;2023-04-30T00:27:57;38.08;;;17.90;;
69835;SDS011;57132;51.972;4.450;2023-04-30T00:30:22;40.42;;;18.05;;
69835;SDS011;57132;51.972;4.450;2023-04-30T00:32:48;35.00;;;17.55;;
69835;SDS011;57132;51.972;4.450;2023-04-30T00:35:13;39.40;;;17.00;;
69835;SDS011;57132;51.972;4.450;2023-04-30T00:37:38;36.10;;;16.17;;
69835;SDS011;57132;51.972;4.450;2023-04-30T00:40:04;39.20;;;17.90;;
69835;SDS011;57132;51.972;4.450;2023-04-30T00:42:30;40.20;;;17.90;;
69835;SDS011;57132;51.972;4.450;2023-04-30T00:44:55;39.20;;;18.25;;
69835;SDS011;57132;51.972;4.450;2023-04-30T00:47:21;36.90;;;17.90;;
69835;SDS011;57132;51.972;4.450;2023-04-30T00:49:46;41.92;;;18.77;;
69835;SDS011;57132;51.972;4.450;2023-04-30T00:52:12;36.17;;;16.63;;
69835;SDS011;57132;51.972;4.450;2023-04-30T00:54:38;44.63;;;19.83;;
69835;SDS011;57132;51.972;4.450;2023-04-30T00:57:04;42.75;;;19.23;;
69835;SDS011;57132;51.972;4.450;2023-04-30T00:59:30;43.00;;;20.02;;
69835;SDS011;57132;51.972;4.450;2023-04-30T01:01:57;46.60;;;20.40;;
69835;SDS011;57132;51.972;4.450;2023-04-30T01:04:23;46.00;;;20.23;;
69835;SDS011;57132;51.972;4.450;2023-04-30T01:06:48;43.38;;;19.30;;
69835;SDS011;57132;51.972;4.450;2023-04-30T01:09:13;41.75;;;19.95;;
69835;SDS011;57132;51.972;4.450;2023-04-30T01:20:13;43.65;;;19.63;;
69835;SDS011;57132;51.972;4.450;2023-04-30T01:22:45;40.38;;;19.63;;
69835;SDS011;57132;51.972;4.450;2023-04-30T01:30:32;43.72;;;19.42;;
69835;SDS011;57132;51.972;4.450;2023-04-30T01:32:58;36.67;;;20.40;;
69835;SDS011;57132;51.972;4.450;2023-04-30T01:35:45;40.95;;;18.92;;
69835;SDS011;57132;51.972;4.450;2023-04-30T01:40:51;42.83;;;20.75;;
69835;SDS011;57132;51.972;4.450;2023-04-30T01:45:58;46.25;;;21.88;;
69835;SDS011;57132;51.972;4.450;2023-04-30T01:48:52;41.95;;;22.30;;
69835;SDS011;57132;51.972;4.450;2023-04-30T01:51:31;45.35;;;22.52;;
69835;SDS011;57132;51.972;4.450;2023-04-30T01:54:24;47.88;;;21.65;;
69835;SDS011;57132;51.972;4.450;2023-04-30T01:56:56;49.28;;;25.08;;
69835;SDS011;57132;51.972;4.450;2023-04-30T01:59:30;41.60;;;22.52;;
69835;SDS011;57132;51.972;4.450;2023-04-30T02:01:58;51.10;;;23.80;;
69835;SDS011;57132;51.972;4.450;2023-04-30T02:04:24;51.20;;;24.98;;
69835;SDS011;57132;51.972;4.450;2023-04-30T02:06:49;49.13;;;23.15;;
69835;SDS011;57132;51.972;4.450;2023-04-30T02:09:15;54.28;;;23.40;;
69835;SDS011;57132;51.972;4.450;2023-04-30T02:11:40;42.47;;;22.75;;
69835;SDS011;57132;51.972;4.450;2023-04-30T02:14:05;51.90;;;22.88;;
69835;SDS011;57132;51.972;4.450;2023-04-30T02:16:31;51.80;;;24.35;;
69835;SDS011;57132;51.972;4.450;2023-04-30T02:18:56;48.88;;;24.70;;
69835;SDS011;57132;51.972;4.450;2023-04-30T02:21:21;49.50;;;23.65;;
69835;SDS011;57132;51.972;4.450;2023-04-30T02:23:47;51.33;;;23.73;;
69835;SDS011;57132;51.972;4.450;2023-04-30T02:26:12;55.90;;;25.90;;
69835;SDS011;57132;51.972;4.450;2023-04-30T02:28:37;50.10;;;26.02;;
69835;SDS011;57132;51.972;4.450;2023-04-30T02:31:03;56.10;;;25.30;;
69835;SDS011;57132;51.972;4.450;2023-04-30T02:33:28;56.60;;;24.33;;
69835;SDS011;57132;51.972;4.450;2023-04-30T02:35:54;58.35;;;25.52;;
69835;SDS011;57132;51.972;4.450;2023-04-30T02:38:19;51.47;;;24.45;;
69835;SDS011;57132;51.972;4.450;2023-04-30T02:40:45;54.20;;;24.27;;
69835;SDS011;57132;51.972;4.450;2023-04-30T02:43:10;51.83;;;23.75;;
69835;SDS011;57132;51.972;4.450;2023-04-30T02:45:35;54.45;;;23.67;;
69835;SDS011;57132;51.972;4.450;2023-04-30T02:48:00;62.75;;;27.05;;
69835;SDS011;57132;51.972;4.450;2023-04-30T02:50:26;62.70;;;28.40;;
69835;SDS011;57132;51.972;4.450;2023-04-30T02:52:51;60.97;;;27.00;;
69835;SDS011;57132;51.972;4.450;2023-04-30T02:55:16;56.35;;;27.33;;
69835;SDS011;57132;51.972;4.450;2023-04-30T02:57:42;63.42;;;25.50;;
69835;SDS011;57132;51.972;4.450;2023-04-30T03:00:07;61.38;;;26.65;;
69835;SDS011;57132;51.972;4.450;2023-04-30T03:02:33;60.08;;;27.05;;
69835;SDS011;57132;51.972;4.450;2023-04-30T03:04:59;64.35;;;26.05;;
69835;SDS011;57132;51.972;4.450;2023-04-30T03:07:24;55.33;;;25.40;;
69835;SDS011;57132;51.972;4.450;2023-04-30T03:09:49;55.20;;;27.05;;
69835;SDS011;57132;51.972;4.450;2023-04-30T03:12:15;60.13;;;25.75;;
69835;SDS011;57132;51.972;4.450;2023-04-30T03:14:40;57.33;;;25.83;;
69835;SDS011;57132;51.972;4.450;2023-04-30T03:17:06;58.15;;;25.80;;
69835;SDS011;57132;51.972;4.450;2023-04-30T03:19:31;52.15;;;24.48;;
69835;SDS011;57132;51.972;4.450;2023-04-30T03:21:56;57.88;;;25.50;;
69835;SDS011;57132;51.972;4.450;2023-04-30T03:24:22;53.40;;;25.08;;
69835;SDS011;57132;51.972;4.450;2023-04-30T03:26:49;55.15;;;25.85;;
69835;SDS011;57132;51.972;4.450;2023-04-30T03:29:14;57.28;;;27.02;;
69835;SDS011;57132;51.972;4.450;2023-04-30T03:31:40;55.67;;;24.55;;
69835;SDS011;57132;51.972;4.450;2023-04-30T03:34:05;58.15;;;26.13;;
69835;SDS011;57132;51.972;4.450;2023-04-30T03:36:31;63.33;;;27.80;;
69835;SDS011;57132;51.972;4.450;2023-04-30T03:38:57;60.90;;;26.27;;
69835;SDS011;57132;51.972;4.450;2023-04-30T03:41:22;58.40;;;26.98;;
69835;SDS011;57132;51.972;4.450;2023-04-30T03:43:48;51.28;;;23.70;;
69835;SDS011;57132;51.972;4.450;2023-04-30T03:46:13;56.72;;;24.70;;
69835;SDS011;57132;51.972;4.450;2023-04-30T03:48:38;57.22;;;25.45;;
69835;SDS011;57132;51.972;4.450;2023-04-30T03:51:04;57.38;;;28.27;;
69835;SDS011;57132;51.972;4.450;2023-04-30T03:53:29;57.75;;;24.55;;
69835;SDS011;57132;51.972;4.450;2023-04-30T03:55:55;60.03;;;27.08;;
69835;SDS011;57132;51.972;4.450;2023-04-30T03:58:20;63.08;;;29.10;;
69835;SDS011;57132;51.972;4.450;2023-04-30T04:00:46;74.97;;;29.55;;
69835;SDS011;57132;51.972;4.450;2023-04-30T04:03:12;55.50;;;24.65;;
69835;SDS011;57132;51.972;4.450;2023-04-30T04:05:38;58.95;;;26.33;;
69835;SDS011;57132;51.972;4.450;2023-04-30T04:08:05;57.88;;;27.35;;
69835;SDS011;57132;51.972;4.450;2023-04-30T04:10:30;56.97;;;26.00;;
69835;SDS011;57132;51.972;4.450;2023-04-30T04:12:56;57.10;;;24.25;;
69835;SDS011;57132;51.972;4.450;2023-04-30T04:15:22;58.67;;;25.55;;
69835;SDS011;57132;51.972;4.450;2023-04-30T04:17:47;62.05;;;26.65;;
69835;SDS011;57132;51.972;4.450;2023-04-30T04:20:12;54.55;;;23.42;;
69835;SDS011;57132;51.972;4.450;2023-04-30T04:22:38;47.55;;;21.48;;
69835;SDS011;57132;51.972;4.450;2023-04-30T04:25:03;45.22;;;20.85;;
69835;SDS011;57132;51.972;4.450;2023-04-30T04:27:29;41.15;;;21.77;;
69835;SDS011;57132;51.972;4.450;2023-04-30T04:29:54;46.15;;;20.80;;
69835;SDS011;57132;51.972;4.450;2023-04-30T04:32:20;48.47;;;20.38;;
69835;SDS011;57132;51.972;4.450;2023-04-30T04:34:46;42.70;;;21.08;;
69835;SDS011;57132;51.972;4.450;2023-04-30T04:37:13;50.42;;;21.38;;
69835;SDS011;57132;51.972;4.450;2023-04-30T04:39:39;52.72;;;21.65;;
69835;SDS011;57132;51.972;4.450;2023-04-30T04:42:04;42.60;;;20.80;;
69835;SDS011;57132;51.972;4.450;2023-04-30T04:44:30;53.47;;;21.88;;
69835;SDS011;57132;51.972;4.450;2023-04-30T04:46:56;44.45;;;21.60;;
69835;SDS011;57132;51.972;4.450;2023-04-30T04:49:22;43.63;;;22.70;;
69835;SDS011;57132;51.972;4.450;2023-04-30T04:51:47;40.40;;;21.77;;
69835;SDS011;57132;51.972;4.450;2023-04-30T04:54:12;31.20;;;17.00;;
69835;SDS011;57132;51.972;4.450;2023-04-30T04:56:38;27.52;;;15.45;;
69835;SDS011;57132;51.972;4.450;2023-04-30T04:59:03;26.58;;;13.43;;
69835;SDS011;57132;51.972;4.450;2023-04-30T05:01:28;22.95;;;11.15;;
69835;SDS011;57132;51.972;4.450;2023-04-30T05:03:54;20.10;;;10.55;;
69835;SDS011;57132;51.972;4.450;2023-04-30T05:06:20;18.35;;;10.27;;
69835;SDS011;57132;51.972;4.450;2023-04-30T05:08:45;17.13;;;10.18;;
69835;SDS011;57132;51.972;4.450;2023-04-30T05:11:11;17.48;;;8.18;;
69835;SDS011;57132;51.972;4.450;2023-04-30T05:13:36;14.50;;;9.25;;
69835;SDS011;57132;51.972;4.450;2023-04-30T05:16:02;17.30;;;8.32;;
69835;SDS011;57132;51.972;4.450;2023-04-30T05:18:27;15.30;;;9.02;;
69835;SDS011;57132;51.972;4.450;2023-04-30T05:20:53;14.05;;;7.97;;
69835;SDS011;57132;51.972;4.450;2023-04-30T05:23:18;12.43;;;8.70;;
69835;SDS011;57132;51.972;4.450;2023-04-30T05:25:43;19.23;;;8.48;;
69835;SDS011;57132;51.972;4.450;2023-04-30T05:28:09;16.90;;;9.38;;
69835;SDS011;57132;51.972;4.450;2023-04-30T05:30:36;13.68;;;8.93;;
69835;SDS011;57132;51.972;4.450;2023-04-30T05:33:02;14.98;;;8.70;;
69835;SDS011;57132;51.972;4.450;2023-04-30T05:35:27;14.60;;;9.27;;
69835;SDS011;57132;51.972;4.450;2023-04-30T05:37:54;14.30;;;9.13;;
69835;SDS011;57132;51.972;4.450;2023-04-30T05:40:19;16.48;;;8.15;;
69835;SDS011;57132;51.972;4.450;2023-04-30T05:42:45;14.00;;;8.05;;
69835;SDS011;57132;51.972;4.450;2023-04-30T05:45:11;10.93;;;7.72;;
69835;SDS011;57132;51.972;4.450;2023-04-30T05:47:38;15.90;;;7.90;;
69835;SDS011;57132;51.972;4.450;2023-04-30T05:50:04;14.10;;;8.27;;
69835;SDS011;57132;51.972;4.450;2023-04-30T05:52:30;11.55;;;7.70;;
69835;SDS011;57132;51.972;4.450;2023-04-30T05:54:56;17.02;;;8.23;;
69835;SDS011;57132;51.972;4.450;2023-04-30T05:57:22;11.73;;;7.65;;
69835;SDS011;57132;51.972;4.450;2023-04-30T05:59:47;14.80;;;8.40;;
69835;SDS011;57132;51.972;4.450;2023-04-30T06:02:12;13.13;;;8.13;;
69835;SDS011;57132;51.972;4.450;2023-04-30T06:04:38;10.50;;;7.50;;
69835;SDS011;57132;51.972;4.450;2023-04-30T06:07:04;13.05;;;7.47;;
69835;SDS011;57132;51.972;4.450;2023-04-30T06:09:29;9.85;;;6.57;;
69835;SDS011;57132;51.972;4.450;2023-04-30T06:11:54;11.38;;;7.38;;
69835;SDS011;57132;51.972;4.450;2023-04-30T06:14:20;10.68;;;7.13;;
69835;SDS011;57132;51.972;4.450;2023-04-30T06:16:46;11.88;;;7.25;;
69835;SDS011;57132;51.972;4.450;2023-04-30T06:19:13;12.50;;;6.88;;
69835;SDS011;57132;51.972;4.450;2023-04-30T06:21:38;14.75;;;7.20;;
69835;SDS011;57132;51.972;4.450;2023-04-30T06:24:04;12.45;;;6.50;;
69835;SDS011;57132;51.972;4.450;2023-04-30T06:26:31;10.43;;;6.85;;
69835;SDS011;57132;51.972;4.450;2023-04-30T06:28:56;13.05;;;7.05;;
69835;SDS011;57132;51.972;4.450;2023-04-30T06:31:22;11.32;;;6.70;;
69835;SDS011;57132;51.972;4.450;2023-04-30T06:33:48;11.63;;;6.95;;
69835;SDS011;57132;51.972;4.450;2023-04-30T06:36:14;11.00;;;7.03;;
69835;SDS011;57132;51.972;4.450;2023-04-30T06:38:40;12.90;;;7.00;;
69835;SDS011;57132;51.972;4.450;2023-04-30T06:41:06;11.63;;;7.00;;
69835;SDS011;57132;51.972;4.450;2023-04-30T06:43:32;19.15;;;8.50;;
69835;SDS011;57132;51.972;4.450;2023-04-30T06:45:57;13.68;;;7.07;;
69835;SDS011;57132;51.972;4.450;2023-04-30T06:48:22;10.65;;;7.43;;
69835;SDS011;57132;51.972;4.450;2023-04-30T06:50:49;12.88;;;7.18;;
69835;SDS011;57132;51.972;4.450;2023-04-30T06:53:15;9.63;;;7.20;;
69835;SDS011;57132;51.972;4.450;2023-04-30T06:55:41;10.45;;;7.30;;
69835;SDS011;57132;51.972;4.450;2023-04-30T06:58:06;12.82;;;7.95;;
69835;SDS011;57132;51.972;4.450;2023-04-30T07:00:32;13.95;;;7.55;;
69835;SDS011;57132;51.972;4.450;2023-04-30T07:02:58;11.13;;;7.45;;
69835;SDS011;57132;51.972;4.450;2023-04-30T07:05:28;12.75;;;7.97;;
69835;SDS011;57132;51.972;4.450;2023-04-30T07:07:54;11.25;;;7.55;;
69835;SDS011;57132;51.972;4.450;2023-04-30T07:10:20;13.20;;;8.30;;
69835;SDS011;57132;51.972;4.450;2023-04-30T07:12:46;12.15;;;8.20;;
69835;SDS011;57132;51.972;4.450;2023-04-30T07:15:11;15.10;;;7.70;;
69835;SDS011;57132;51.972;4.450;2023-04-30T07:17:36;11.85;;;8.13;;
69835;SDS011;57132;51.972;4.450;2023-04-30T07:20:05;12.45;;;8.30;;
69835;SDS011;57132;51.972;4.450;2023-04-30T07:22:31;12.18;;;7.97;;
69835;SDS011;57132;51.972;4.450;2023-04-30T07:24:56;14.30;;;8.13;;
69835;SDS011;57132;51.972;4.450;2023-04-30T07:27:22;14.88;;;8.10;;
69835;SDS011;57132;51.972;4.450;2023-04-30T07:29:47;12.85;;;7.95;;
69835;SDS011;57132;51.972;4.450;2023-04-30T07:32:13;15.68;;;8.07;;
69835;SDS011;57132;51.972;4.450;2023-04-30T07:34:40;12.68;;;8.73;;
69835;SDS011;57132;51.972;4.450;2023-04-30T07:37:06;14.65;;;8.93;;
69835;SDS011;57132;51.972;4.450;2023-04-30T07:39:32;12.88;;;8.55;;
69835;SDS011;57132;51.972;4.450;2023-04-30T07:41:58;15.48;;;8.05;;
69835;SDS011;57132;51.972;4.450;2023-04-30T07:44:23;13.38;;;8.50;;
69835;SDS011;57132;51.972;4.450;2023-04-30T07:46:48;13.32;;;7.93;;
69835;SDS011;57132;51.972;4.450;2023-04-30T07:49:14;13.15;;;9.13;;
69835;SDS011;57132;51.972;4.450;2023-04-30T07:51:39;11.70;;;8.10;;
69835;SDS011;57132;51.972;4.450;2023-04-30T07:54:06;12.88;;;8.48;;
69835;SDS011;57132;51.972;4.450;2023-04-30T07:56:31;15.30;;;8.45;;
69835;SDS011;57132;51.972;4.450;2023-04-30T07:58:56;14.65;;;9.45;;
69835;SDS011;57132;51.972;4.450;2023-04-30T08:01:22;14.45;;;8.45;;
69835;SDS011;57132;51.972;4.450;2023-04-30T08:03:47;13.10;;;8.30;;
69835;SDS011;57132;51.972;4.450;2023-04-30T08:06:12;14.40;;;7.75;;
69835;SDS011;57132;51.972;4.450;2023-04-30T08:08:38;12.75;;;7.95;;
69835;SDS011;57132;51.972;4.450;2023-04-30T08:11:03;11.23;;;7.65;;
69835;SDS011;57132;51.972;4.450;2023-04-30T08:13:29;14.20;;;8.38;;
69835;SDS011;57132;51.972;4.450;2023-04-30T08:15:54;14.40;;;8.30;;
69835;SDS011;57132;51.972;4.450;2023-04-30T08:18:20;13.95;;;8.82;;
69835;SDS011;57132;51.972;4.450;2023-04-30T08:20:45;10.45;;;7.85;;
69835;SDS011;57132;51.972;4.450;2023-04-30T08:23:11;14.80;;;8.38;;
69835;SDS011;57132;51.972;4.450;2023-04-30T08:25:36;14.23;;;8.40;;
69835;SDS011;57132;51.972;4.450;2023-04-30T08:28:01;12.80;;;7.78;;
69835;SDS011;57132;51.972;4.450;2023-04-30T08:30:27;10.80;;;7.57;;
69835;SDS011;57132;51.972;4.450;2023-04-30T08:32:52;12.43;;;7.25;;
69835;SDS011;57132;51.972;4.450;2023-04-30T08:35:17;12.50;;;7.20;;
69835;SDS011;57132;51.972;4.450;2023-04-30T08:37:43;10.88;;;7.38;;
69835;SDS011;57132;51.972;4.450;2023-04-30T08:40:09;11.85;;;7.45;;
69835;SDS011;57132;51.972;4.450;2023-04-30T08:42:36;12.73;;;6.93;;
69835;SDS011;57132;51.972;4.450;2023-04-30T08:45:02;12.32;;;8.00;;
69835;SDS011;57132;51.972;4.450;2023-04-30T08:47:28;15.10;;;8.05;;
69835;SDS011;57132;51.972;4.450;2023-04-30T08:49:54;11.25;;;7.20;;
69835;SDS011;57132;51.972;4.450;2023-04-30T08:52:20;14.18;;;8.48;;
69835;SDS011;57132;51.972;4.450;2023-04-30T08:54:46;14.73;;;7.45;;
69835;SDS011;57132;51.972;4.450;2023-04-30T08:57:12;9.82;;;5.93;;
69835;SDS011;57132;51.972;4.450;2023-04-30T08:59:38;10.88;;;6.80;;
69835;SDS011;57132;51.972;4.450;2023-04-30T09:02:04;10.60;;;7.10;;
69835;SDS011;57132;51.972;4.450;2023-04-30T09:04:29;13.05;;;7.18;;
69835;SDS011;57132;51.972;4.450;2023-04-30T09:06:55;12.88;;;7.32;;
69835;SDS011;57132;51.972;4.450;2023-04-30T09:09:27;12.48;;;7.05;;
69835;SDS011;57132;51.972;4.450;2023-04-30T09:12:13;9.70;;;7.13;;
69835;SDS011;57132;51.972;4.450;2023-04-30T09:14:56;14.32;;;8.15;;
69835;SDS011;57132;51.972;4.450;2023-04-30T09:17:29;11.55;;;8.07;;
69835;SDS011;57132;51.972;4.450;2023-04-30T09:22:37;13.23;;;8.55;;
69835;SDS011;57132;51.972;4.450;2023-04-30T09:25:03;18.77;;;9.07;;
69835;SDS011;57132;51.972;4.450;2023-04-30T09:27:29;14.77;;;8.48;;
69835;SDS011;57132;51.972;4.450;2023-04-30T09:29:55;11.07;;;6.55;;
69835;SDS011;57132;51.972;4.450;2023-04-30T09:32:20;13.38;;;8.18;;
69835;SDS011;57132;51.972;4.450;2023-04-30T09:34:45;13.55;;;8.23;;
69835;SDS011;57132;51.972;4.450;2023-04-30T09:37:11;13.27;;;7.90;;
69835;SDS011;57132;51.972;4.450;2023-04-30T09:39:48;12.85;;;8.13;;
69835;SDS011;57132;51.972;4.450;2023-04-30T09:42:15;18.25;;;9.70;;
69835;SDS011;57132;51.972;4.450;2023-04-30T09:44:41;11.88;;;7.93;;
69835;SDS011;57132;51.972;4.450;2023-04-30T09:47:12;14.57;;;8.20;;
69835;SDS011;57132;51.972;4.450;2023-04-30T09:49:40;13.77;;;8.00;;
69835;SDS011;57132;51.972;4.450;2023-04-30T09:52:11;12.38;;;8.10;;
69835;SDS011;57132;51.972;4.450;2023-04-30T09:54:39;14.30;;;8.57;;
69835;SDS011;57132;51.972;4.450;2023-04-30T09:57:05;12.07;;;8.13;;
69835;SDS011;57132;51.972;4.450;2023-04-30T09:59:35;13.98;;;8.13;;
69835;SDS011;57132;51.972;4.450;2023-04-30T10:02:02;16.00;;;8.75;;
69835;SDS011;57132;51.972;4.450;2023-04-30T10:04:29;14.38;;;8.88;;
69835;SDS011;57132;51.972;4.450;2023-04-30T10:06:57;18.55;;;8.20;;
69835;SDS011;57132;51.972;4.450;2023-04-30T10:09:28;15.70;;;7.53;;
69835;SDS011;57132;51.972;4.450;2023-04-30T10:12:00;15.15;;;7.82;;
69835;SDS011;57132;51.972;4.450;2023-04-30T10:14:29;13.73;;;7.88;;
69835;SDS011;57132;51.972;4.450;2023-04-30T10:17:01;16.00;;;7.97;;
69835;SDS011;57132;51.972;4.450;2023-04-30T10:19:33;11.93;;;7.78;;
69835;SDS011;57132;51.972;4.450;2023-04-30T10:22:03;11.55;;;6.78;;
69835;SDS011;57132;51.972;4.450;2023-04-30T10:24:29;9.00;;;5.40;;
69835;SDS011;57132;51.972;4.450;2023-04-30T10:26:54;8.10;;;4.97;;
69835;SDS011;57132;51.972;4.450;2023-04-30T10:29:21;7.30;;;5.03;;
69835;SDS011;57132;51.972;4.450;2023-04-30T10:31:47;9.02;;;5.78;;
69835;SDS011;57132;51.972;4.450;2023-04-30T10:36:46;9.30;;;5.50;;
69835;SDS011;57132;51.972;4.450;2023-04-30T10:39:13;8.23;;;4.53;;
69835;SDS011;57132;51.972;4.450;2023-04-30T10:41:43;9.20;;;4.95;;
69835;SDS011;57132;51.972;4.450;2023-04-30T10:44:10;6.50;;;3.35;;
69835;SDS011;57132;51.972;4.450;2023-04-30T10:46:35;7.65;;;4.32;;
69835;SDS011;57132;51.972;4.450;2023-04-30T10:49:01;8.50;;;5.10;;
69835;SDS011;57132;51.972;4.450;2023-04-30T10:54:14;8.65;;;5.15;;
69835;SDS011;57132;51.972;4.450;2023-04-30T10:56:42;7.30;;;4.57;;
69835;SDS011;57132;51.972;4.450;2023-04-30T10:59:08;9.23;;;5.57;;
69835;SDS011;57132;51.972;4.450;2023-04-30T11:01:53;10.80;;;5.75;;
69835;SDS011;57132;51.972;4.450;2023-04-30T11:04:20;11.73;;;6.82;;
69835;SDS011;57132;51.972;4.450;2023-04-30T11:09:17;11.85;;;6.63;;
69835;SDS011;57132;51.972;4.450;2023-04-30T11:11:43;7.88;;;4.80;;
69835;SDS011;57132;51.972;4.450;2023-04-30T11:14:10;11.77;;;5.32;;
69835;SDS011;57132;51.972;4.450;2023-04-30T11:16:35;8.07;;;5.10;;
69835;SDS011;57132;51.972;4.450;2023-04-30T11:19:11;11.02;;;5.70;;
69835;SDS011;57132;51.972;4.450;2023-04-30T11:21:41;8.43;;;4.97;;
69835;SDS011;57132;51.972;4.450;2023-04-30T11:27:13;6.82;;;3.70;;
69835;SDS011;57132;51.972;4.450;2023-04-30T11:29:43;7.80;;;4.10;;
69835;SDS011;57132;51.972;4.450;2023-04-30T11:32:10;9.57;;;5.32;;
69835;SDS011;57132;51.972;4.450;2023-04-30T11:34:36;8.82;;;5.13;;
69835;SDS011;57132;51.972;4.450;2023-04-30T11:37:02;12.00;;;6.70;;
69835;SDS011;57132;51.972;4.450;2023-04-30T11:39:27;8.32;;;4.90;;
69835;SDS011;57132;51.972;4.450;2023-04-30T11:41:55;9.70;;;5.45;;
69835;SDS011;57132;51.972;4.450;2023-04-30T11:44:24;9.98;;;5.50;;
69835;SDS011;57132;51.972;4.450;2023-04-30T11:46:50;7.32;;;5.07;;
69835;SDS011;57132;51.972;4.450;2023-04-30T11:49:16;8.52;;;5.63;;
69835;SDS011;57132;51.972;4.450;2023-04-30T11:51:42;10.10;;;5.53;;
69835;SDS011;57132;51.972;4.450;2023-04-30T11:54:07;8.57;;;5.38;;
69835;SDS011;57132;51.972;4.450;2023-04-30T11:56:36;8.57;;;5.30;;
69835;SDS011;57132;51.972;4.450;2023-04-30T11:59:07;9.38;;;4.75;;
69835;SDS011;57132;51.972;4.450;2023-04-30T12:01:34;6.22;;;4.45;;
69835;SDS011;57132;51.972;4.450;2023-04-30T12:04:01;11.07;;;5.05;;
69835;SDS011;57132;51.972;4.450;2023-04-30T12:06:30;10.88;;;5.45;;
69835;SDS011;57132;51.972;4.450;2023-04-30T12:08:56;9.98;;;5.95;;
69835;SDS011;57132;51.972;4.450;2023-04-30T12:11:28;8.55;;;5.10;;
69835;SDS011;57132;51.972;4.450;2023-04-30T12:14:04;10.02;;;6.47;;
69835;SDS011;57132;51.972;4.450;2023-04-30T12:16:44;12.35;;;6.40;;
69835;SDS011;57132;51.972;4.450;2023-04-30T12:19:17;6.47;;;4.57;;
69835;SDS011;57132;51.972;4.450;2023-04-30T12:21:45;9.10;;;5.57;;
69835;SDS011;57132;51.972;4.450;2023-04-30T12:24:12;12.00;;;6.60;;
69835;SDS011;57132;51.972;4.450;2023-04-30T12:26:39;15.50;;;7.47;;
69835;SDS011;57132;51.972;4.450;2023-04-30T12:29:09;9.02;;;5.93;;
69835;SDS011;57132;51.972;4.450;2023-04-30T12:31:36;9.98;;;6.03;;
69835;SDS011;57132;51.972;4.450;2023-04-30T12:34:04;8.65;;;6.00;;
69835;SDS011;57132;51.972;4.450;2023-04-30T12:36:31;9.15;;;6.10;;
69835;SDS011;57132;51.972;4.450;2023-04-30T12:39:10;11.15;;;6.03;;
69835;SDS011;57132;51.972;4.450;2023-04-30T12:41:40;9.77;;;6.50;;
69835;SDS011;57132;51.972;4.450;2023-04-30T12:44:16;11.57;;;6.90;;
69835;SDS011;57132;51.972;4.450;2023-04-30T12:46:42;12.68;;;6.93;;
69835;SDS011;57132;51.972;4.450;2023-04-30T12:49:07;17.25;;;7.10;;
69835;SDS011;57132;51.972;4.450;2023-04-30T12:51:36;13.18;;;6.60;;
69835;SDS011;57132;51.972;4.450;2023-04-30T12:54:05;15.85;;;8.02;;
69835;SDS011;57132;51.972;4.450;2023-04-30T12:56:30;12.63;;;6.65;;
69835;SDS011;57132;51.972;4.450;2023-04-30T12:58:56;11.00;;;7.00;;
69835;SDS011;57132;51.972;4.450;2023-04-30T13:01:21;14.85;;;7.18;;
69835;SDS011;57132;51.972;4.450;2023-04-30T13:03:49;10.95;;;6.25;;
69835;SDS011;57132;51.972;4.450;2023-04-30T13:06:15;13.32;;;7.40;;
69835;SDS011;57132;51.972;4.450;2023-04-30T13:08:41;12.43;;;6.88;;
69835;SDS011;57132;51.972;4.450;2023-04-30T13:11:07;10.60;;;6.80;;
69835;SDS011;57132;51.972;4.450;2023-04-30T13:13:32;8.88;;;5.75;;
69835;SDS011;57132;51.972;4.450;2023-04-30T13:15:58;15.57;;;6.57;;
69835;SDS011;57132;51.972;4.450;2023-04-30T13:18:23;12.23;;;6.50;;
69835;SDS011;57132;51.972;4.450;2023-04-30T13:20:49;12.13;;;6.90;;
69835;SDS011;57132;51.972;4.450;2023-04-30T13:23:15;9.13;;;5.47;;
69835;SDS011;57132;51.972;4.450;2023-04-30T13:25:41;8.63;;;4.72;;
69835;SDS011;57132;51.972;4.450;2023-04-30T13:28:07;7.75;;;4.47;;
69835;SDS011;57132;51.972;4.450;2023-04-30T13:30:32;9.40;;;5.60;;
69835;SDS011;57132;51.972;4.450;2023-04-30T13:32:58;9.43;;;5.55;;
69835;SDS011;57132;51.972;4.450;2023-04-30T13:35:24;10.80;;;5.85;;
69835;SDS011;57132;51.972;4.450;2023-04-30T13:37:49;9.20;;;4.93;;
69835;SDS011;57132;51.972;4.450;2023-04-30T13:40:17;9.00;;;5.43;;
69835;SDS011;57132;51.972;4.450;2023-04-30T13:42:43;9.75;;;4.50;;
69835;SDS011;57132;51.972;4.450;2023-04-30T13:45:10;7.78;;;5.38;;
69835;SDS011;57132;51.972;4.450;2023-04-30T13:47:35;7.53;;;4.45;;
69835;SDS011;57132;51.972;4.450;2023-04-30T13:50:01;8.63;;;4.10;;
69835;SDS011;57132;51.972;4.450;2023-04-30T13:52:27;6.97;;;3.90;;
69835;SDS011;57132;51.972;4.450;2023-04-30T13:54:53;9.20;;;4.85;;
69835;SDS011;57132;51.972;4.450;2023-04-30T13:57:18;10.27;;;3.88;;
69835;SDS011;57132;51.972;4.450;2023-04-30T13:59:43;7.65;;;3.95;;
69835;SDS011;57132;51.972;4.450;2023-04-30T14:02:09;7.78;;;3.97;;
69835;SDS011;57132;51.972;4.450;2023-04-30T14:04:34;5.78;;;3.65;;
69835;SDS011;57132;51.972;4.450;2023-04-30T14:07:00;5.85;;;3.33;;
69835;SDS011;57132;51.972;4.450;2023-04-30T14:09:26;5.78;;;3.50;;
69835;SDS011;57132;51.972;4.450;2023-04-30T14:11:51;5.53;;;2.83;;
69835;SDS011;57132;51.972;4.450;2023-04-30T14:14:17;5.70;;;4.28;;
69835;SDS011;57132;51.972;4.450;2023-04-30T14:16:42;5.15;;;2.80;;
69835;SDS011;57132;51.972;4.450;2023-04-30T14:19:08;7.90;;;2.92;;
69835;SDS011;57132;51.972;4.450;2023-04-30T14:21:34;4.10;;;2.72;;
69835;SDS011;57132;51.972;4.450;2023-04-30T14:24:00;6.10;;;3.30;;
69835;SDS011;57132;51.972;4.450;2023-04-30T14:26:25;5.15;;;2.78;;
69835;SDS011;57132;51.972;4.450;2023-04-30T14:28:51;4.45;;;2.90;;
69835;SDS011;57132;51.972;4.450;2023-04-30T14:31:16;3.83;;;2.55;;
69835;SDS011;57132;51.972;4.450;2023-04-30T14:33:41;9.25;;;2.85;;
69835;SDS011;57132;51.972;4.450;2023-04-30T14:36:07;4.47;;;2.20;;
69835;SDS011;57132;51.972;4.450;2023-04-30T14:38:33;4.95;;;2.75;;
69835;SDS011;57132;51.972;4.450;2023-04-30T14:40:58;7.28;;;2.83;;
69835;SDS011;57132;51.972;4.450;2023-04-30T14:43:23;7.00;;;2.45;;
69835;SDS011;57132;51.972;4.450;2023-04-30T14:45:49;2.63;;;1.73;;
69835;SDS011;57132;51.972;4.450;2023-04-30T14:48:15;4.68;;;2.55;;
69835;SDS011;57132;51.972;4.450;2023-04-30T14:50:40;3.83;;;2.38;;
69835;SDS011;57132;51.972;4.450;2023-04-30T14:53:08;3.55;;;2.15;;
69835;SDS011;57132;51.972;4.450;2023-04-30T14:55:35;5.65;;;2.60;;
69835;SDS011;57132;51.972;4.450;2023-04-30T14:58:01;3.83;;;2.30;;
69835;SDS011;57132;51.972;4.450;2023-04-30T15:00:26;5.03;;;3.03;;
69835;SDS011;57132;51.972;4.450;2023-04-30T15:02:53;5.93;;;2.88;;